sensor_id;sensor_type;location;lat;lon;timestamp;temperature;humidity
47310;DHT22;33046;52.270;6.832;2022-09-28T00:00:24;12.20;97.30
47310;DHT22;33046;52.270;6.832;2022-09-28T00:02:30;12.20;97.30
47310;DHT22;33046;52.270;6.832;2022-09-28T00:04:37;12.20;97.30
47310;DHT22;33046;52.270;6.832;2022-09-28T00:06:46;12.20;97.40
47310;DHT22;33046;52.270;6.832;2022-09-28T00:08:53;12.20;97.10
47310;DHT22;33046;52.270;6.832;2022-09-28T00:11:01;12.20;97.30
47310;DHT22;33046;52.270;6.832;2022-09-28T00:13:08;12.20;97.10
47310;DHT22;33046;52.270;6.832;2022-09-28T00:15:15;12.20;97.20
47310;DHT22;33046;52.270;6.832;2022-09-28T00:17:22;12.20;97.20
47310;DHT22;33046;52.270;6.832;2022-09-28T00:19:29;12.20;97.20
47310;DHT22;33046;52.270;6.832;2022-09-28T00:21:37;12.20;97.10
47310;DHT22;33046;52.270;6.832;2022-09-28T00:23:45;12.20;97.10
47310;DHT22;33046;52.270;6.832;2022-09-28T00:25:52;12.20;97.10
47310;DHT22;33046;52.270;6.832;2022-09-28T00:27:59;12.20;97.00
47310;DHT22;33046;52.270;6.832;2022-09-28T00:30:07;12.20;97.20
47310;DHT22;33046;52.270;6.832;2022-09-28T00:32:14;12.10;97.20
47310;DHT22;33046;52.270;6.832;2022-09-28T00:34:21;12.20;97.10
47310;DHT22;33046;52.270;6.832;2022-09-28T00:36:29;12.20;97.20
47310;DHT22;33046;52.270;6.832;2022-09-28T00:38:36;12.20;97.00
47310;DHT22;33046;52.270;6.832;2022-09-28T00:40:44;12.10;97.10
47310;DHT22;33046;52.270;6.832;2022-09-28T00:42:51;12.20;97.10
47310;DHT22;33046;52.270;6.832;2022-09-28T00:44:58;12.10;97.10
47310;DHT22;33046;52.270;6.832;2022-09-28T00:47:19;12.10;97.20
47310;DHT22;33046;52.270;6.832;2022-09-28T00:49:31;12.20;97.10
47310;DHT22;33046;52.270;6.832;2022-09-28T00:51:41;12.10;97.10
47310;DHT22;33046;52.270;6.832;2022-09-28T00:53:50;12.10;97.20
47310;DHT22;33046;52.270;6.832;2022-09-28T00:56:01;12.10;97.30
47310;DHT22;33046;52.270;6.832;2022-09-28T00:58:12;12.20;97.10
47310;DHT22;33046;52.270;6.832;2022-09-28T01:00:19;12.10;97.20
47310;DHT22;33046;52.270;6.832;2022-09-28T01:02:26;12.20;97.30
47310;DHT22;33046;52.270;6.832;2022-09-28T01:04:33;12.20;97.40
47310;DHT22;33046;52.270;6.832;2022-09-28T01:06:40;12.10;97.40
47310;DHT22;33046;52.270;6.832;2022-09-28T01:08:49;12.10;97.30
47310;DHT22;33046;52.270;6.832;2022-09-28T01:10:59;12.10;97.30
47310;DHT22;33046;52.270;6.832;2022-09-28T01:13:06;12.10;97.40
47310;DHT22;33046;52.270;6.832;2022-09-28T01:15:14;12.10;97.20
47310;DHT22;33046;52.270;6.832;2022-09-28T01:17:25;12.10;97.30
47310;DHT22;33046;52.270;6.832;2022-09-28T01:20:08;12.10;97.40
47310;DHT22;33046;52.270;6.832;2022-09-28T01:22:25;12.10;97.30
47310;DHT22;33046;52.270;6.832;2022-09-28T01:24:39;12.10;97.30
47310;DHT22;33046;52.270;6.832;2022-09-28T01:27:03;12.10;97.30
47310;DHT22;33046;52.270;6.832;2022-09-28T01:29:16;12.10;97.30
47310;DHT22;33046;52.270;6.832;2022-09-28T01:31:27;12.10;97.40
47310;DHT22;33046;52.270;6.832;2022-09-28T01:33:37;12.10;97.30
47310;DHT22;33046;52.270;6.832;2022-09-28T01:35:49;12.10;97.30
47310;DHT22;33046;52.270;6.832;2022-09-28T01:38:01;12.10;97.40
47310;DHT22;33046;52.270;6.832;2022-09-28T01:40:09;12.10;97.40
47310;DHT22;33046;52.270;6.832;2022-09-28T01:42:22;12.10;97.30
47310;DHT22;33046;52.270;6.832;2022-09-28T01:44:31;12.10;97.30
47310;DHT22;33046;52.270;6.832;2022-09-28T01:46:43;12.10;97.30
47310;DHT22;33046;52.270;6.832;2022-09-28T01:48:55;12.10;97.50
47310;DHT22;33046;52.270;6.832;2022-09-28T01:51:04;12.10;97.40
47310;DHT22;33046;52.270;6.832;2022-09-28T01:53:18;12.10;97.50
47310;DHT22;33046;52.270;6.832;2022-09-28T01:55:29;12.00;97.40
47310;DHT22;33046;52.270;6.832;2022-09-28T01:57:41;12.10;97.40
47310;DHT22;33046;52.270;6.832;2022-09-28T01:59:54;12.00;97.40
47310;DHT22;33046;52.270;6.832;2022-09-28T02:02:08;12.10;97.50
47310;DHT22;33046;52.270;6.832;2022-09-28T02:04:18;12.10;97.40
47310;DHT22;33046;52.270;6.832;2022-09-28T02:06:31;12.00;97.40
47310;DHT22;33046;52.270;6.832;2022-09-28T02:08:46;12.10;97.50
47310;DHT22;33046;52.270;6.832;2022-09-28T02:11:05;12.10;97.50
47310;DHT22;33046;52.270;6.832;2022-09-28T02:13:18;12.10;97.40
47310;DHT22;33046;52.270;6.832;2022-09-28T02:15:30;12.00;97.50
47310;DHT22;33046;52.270;6.832;2022-09-28T02:17:39;12.00;97.60
47310;DHT22;33046;52.270;6.832;2022-09-28T02:19:46;12.00;97.60
47310;DHT22;33046;52.270;6.832;2022-09-28T02:21:58;12.00;97.70
47310;DHT22;33046;52.270;6.832;2022-09-28T02:24:10;12.00;97.80
47310;DHT22;33046;52.270;6.832;2022-09-28T02:26:22;12.00;97.80
47310;DHT22;33046;52.270;6.832;2022-09-28T02:28:32;12.00;97.70
47310;DHT22;33046;52.270;6.832;2022-09-28T02:30:40;12.00;97.90
47310;DHT22;33046;52.270;6.832;2022-09-28T02:32:50;12.00;98.00
47310;DHT22;33046;52.270;6.832;2022-09-28T02:34:58;12.00;98.10
47310;DHT22;33046;52.270;6.832;2022-09-28T02:37:05;12.00;98.00
47310;DHT22;33046;52.270;6.832;2022-09-28T02:39:12;12.00;98.00
47310;DHT22;33046;52.270;6.832;2022-09-28T02:41:28;12.00;98.10
47310;DHT22;33046;52.270;6.832;2022-09-28T02:43:47;12.00;98.20
47310;DHT22;33046;52.270;6.832;2022-09-28T02:46:02;12.00;98.10
47310;DHT22;33046;52.270;6.832;2022-09-28T02:48:44;12.00;98.10
47310;DHT22;33046;52.270;6.832;2022-09-28T02:51:01;12.00;98.10
47310;DHT22;33046;52.270;6.832;2022-09-28T02:53:33;12.00;98.10
47310;DHT22;33046;52.270;6.832;2022-09-28T02:55:55;12.00;98.10
47310;DHT22;33046;52.270;6.832;2022-09-28T02:58:18;12.00;98.20
47310;DHT22;33046;52.270;6.832;2022-09-28T03:00:30;12.00;98.20
47310;DHT22;33046;52.270;6.832;2022-09-28T03:02:44;11.90;98.20
47310;DHT22;33046;52.270;6.832;2022-09-28T03:05:10;12.00;98.20
47310;DHT22;33046;52.270;6.832;2022-09-28T03:07:21;12.00;98.20
47310;DHT22;33046;52.270;6.832;2022-09-28T03:09:34;11.90;98.00
47310;DHT22;33046;52.270;6.832;2022-09-28T03:11:46;11.90;98.10
47310;DHT22;33046;52.270;6.832;2022-09-28T03:13:55;12.00;98.10
47310;DHT22;33046;52.270;6.832;2022-09-28T03:16:13;12.00;98.10
47310;DHT22;33046;52.270;6.832;2022-09-28T03:18:22;11.90;98.10
47310;DHT22;33046;52.270;6.832;2022-09-28T03:20:30;11.90;98.10
47310;DHT22;33046;52.270;6.832;2022-09-28T03:22:37;11.90;98.00
47310;DHT22;33046;52.270;6.832;2022-09-28T03:24:44;11.90;98.00
47310;DHT22;33046;52.270;6.832;2022-09-28T03:26:51;11.90;98.00
47310;DHT22;33046;52.270;6.832;2022-09-28T03:28:58;11.90;98.10
47310;DHT22;33046;52.270;6.832;2022-09-28T03:31:05;11.80;98.00
47310;DHT22;33046;52.270;6.832;2022-09-28T03:33:14;11.90;98.00
47310;DHT22;33046;52.270;6.832;2022-09-28T03:35:21;11.90;97.90
47310;DHT22;33046;52.270;6.832;2022-09-28T03:37:27;11.90;98.00
47310;DHT22;33046;52.270;6.832;2022-09-28T03:39:34;11.80;98.00
47310;DHT22;33046;52.270;6.832;2022-09-28T03:41:41;11.90;98.10
47310;DHT22;33046;52.270;6.832;2022-09-28T03:43:48;11.90;98.10
47310;DHT22;33046;52.270;6.832;2022-09-28T03:45:56;11.90;98.20
47310;DHT22;33046;52.270;6.832;2022-09-28T03:48:03;11.90;98.10
47310;DHT22;33046;52.270;6.832;2022-09-28T03:50:14;11.90;98.20
47310;DHT22;33046;52.270;6.832;2022-09-28T03:52:21;11.90;98.20
47310;DHT22;33046;52.270;6.832;2022-09-28T03:54:28;11.80;98.10
47310;DHT22;33046;52.270;6.832;2022-09-28T03:56:34;11.80;98.20
47310;DHT22;33046;52.270;6.832;2022-09-28T03:58:41;11.90;98.20
47310;DHT22;33046;52.270;6.832;2022-09-28T04:00:50;11.90;98.30
47310;DHT22;33046;52.270;6.832;2022-09-28T04:02:57;11.80;98.30
47310;DHT22;33046;52.270;6.832;2022-09-28T04:05:05;11.80;98.10
47310;DHT22;33046;52.270;6.832;2022-09-28T04:07:13;11.90;97.90
47310;DHT22;33046;52.270;6.832;2022-09-28T04:09:21;11.80;98.00
47310;DHT22;33046;52.270;6.832;2022-09-28T04:11:27;11.80;98.00
47310;DHT22;33046;52.270;6.832;2022-09-28T04:13:41;11.80;98.20
47310;DHT22;33046;52.270;6.832;2022-09-28T04:15:53;11.80;98.10
47310;DHT22;33046;52.270;6.832;2022-09-28T04:18:00;11.80;98.20
47310;DHT22;33046;52.270;6.832;2022-09-28T04:20:24;11.80;98.20
47310;DHT22;33046;52.270;6.832;2022-09-28T04:22:42;11.80;98.20
47310;DHT22;33046;52.270;6.832;2022-09-28T04:24:49;11.70;98.20
47310;DHT22;33046;52.270;6.832;2022-09-28T04:26:56;11.70;98.30
47310;DHT22;33046;52.270;6.832;2022-09-28T04:29:03;11.70;98.30
47310;DHT22;33046;52.270;6.832;2022-09-28T04:31:14;11.80;98.30
47310;DHT22;33046;52.270;6.832;2022-09-28T04:33:22;11.80;98.40
47310;DHT22;33046;52.270;6.832;2022-09-28T04:35:28;11.80;98.30
47310;DHT22;33046;52.270;6.832;2022-09-28T04:37:35;11.70;98.30
47310;DHT22;33046;52.270;6.832;2022-09-28T04:39:44;11.70;98.20
47310;DHT22;33046;52.270;6.832;2022-09-28T04:41:55;11.70;98.30
47310;DHT22;33046;52.270;6.832;2022-09-28T04:44:02;11.70;98.30
47310;DHT22;33046;52.270;6.832;2022-09-28T04:46:09;11.70;98.10
47310;DHT22;33046;52.270;6.832;2022-09-28T04:48:22;11.70;98.30
47310;DHT22;33046;52.270;6.832;2022-09-28T04:51:03;11.70;98.20
47310;DHT22;33046;52.270;6.832;2022-09-28T04:53:10;11.70;98.10
47310;DHT22;33046;52.270;6.832;2022-09-28T04:55:19;11.70;98.10
47310;DHT22;33046;52.270;6.832;2022-09-28T04:57:25;11.70;98.20
47310;DHT22;33046;52.270;6.832;2022-09-28T04:59:33;11.70;98.20
47310;DHT22;33046;52.270;6.832;2022-09-28T05:01:40;11.60;98.00
47310;DHT22;33046;52.270;6.832;2022-09-28T05:04:06;11.70;98.00
47310;DHT22;33046;52.270;6.832;2022-09-28T05:06:39;11.70;98.10
47310;DHT22;33046;52.270;6.832;2022-09-28T05:08:47;11.60;98.20
47310;DHT22;33046;52.270;6.832;2022-09-28T05:11:00;11.60;97.90
47310;DHT22;33046;52.270;6.832;2022-09-28T05:13:08;11.60;98.00
47310;DHT22;33046;52.270;6.832;2022-09-28T05:15:15;11.60;98.00
47310;DHT22;33046;52.270;6.832;2022-09-28T05:17:22;11.60;98.10
47310;DHT22;33046;52.270;6.832;2022-09-28T05:19:45;11.60;97.90
47310;DHT22;33046;52.270;6.832;2022-09-28T05:21:51;11.60;98.10
47310;DHT22;33046;52.270;6.832;2022-09-28T05:23:58;11.60;98.00
47310;DHT22;33046;52.270;6.832;2022-09-28T05:26:07;11.60;98.00
47310;DHT22;33046;52.270;6.832;2022-09-28T05:28:21;11.60;98.10
47310;DHT22;33046;52.270;6.832;2022-09-28T05:30:57;11.60;98.10
47310;DHT22;33046;52.270;6.832;2022-09-28T05:33:16;11.60;97.90
47310;DHT22;33046;52.270;6.832;2022-09-28T05:35:33;11.60;98.00
47310;DHT22;33046;52.270;6.832;2022-09-28T05:37:40;11.60;97.90
47310;DHT22;33046;52.270;6.832;2022-09-28T05:39:47;11.50;97.80
47310;DHT22;33046;52.270;6.832;2022-09-28T05:41:55;11.60;97.90
47310;DHT22;33046;52.270;6.832;2022-09-28T05:44:02;11.50;97.60
47310;DHT22;33046;52.270;6.832;2022-09-28T05:46:09;11.50;97.40
47310;DHT22;33046;52.270;6.832;2022-09-28T05:48:19;11.60;97.40
47310;DHT22;33046;52.270;6.832;2022-09-28T05:50:26;11.50;97.50
47310;DHT22;33046;52.270;6.832;2022-09-28T05:52:33;11.50;97.70
47310;DHT22;33046;52.270;6.832;2022-09-28T05:54:40;11.50;97.70
47310;DHT22;33046;52.270;6.832;2022-09-28T05:56:46;11.50;97.50
47310;DHT22;33046;52.270;6.832;2022-09-28T05:58:56;11.50;97.50
47310;DHT22;33046;52.270;6.832;2022-09-28T06:01:07;11.50;97.70
47310;DHT22;33046;52.270;6.832;2022-09-28T06:03:14;11.50;97.70
47310;DHT22;33046;52.270;6.832;2022-09-28T06:05:21;11.50;97.40
47310;DHT22;33046;52.270;6.832;2022-09-28T06:07:28;11.50;97.70
47310;DHT22;33046;52.270;6.832;2022-09-28T06:09:34;11.50;97.50
47310;DHT22;33046;52.270;6.832;2022-09-28T06:11:57;11.50;97.60
47310;DHT22;33046;52.270;6.832;2022-09-28T06:14:23;11.50;97.50
47310;DHT22;33046;52.270;6.832;2022-09-28T06:16:29;11.40;97.60
47310;DHT22;33046;52.270;6.832;2022-09-28T06:18:37;11.40;97.80
47310;DHT22;33046;52.270;6.832;2022-09-28T06:21:04;11.40;97.80
47310;DHT22;33046;52.270;6.832;2022-09-28T06:23:14;11.40;97.80
47310;DHT22;33046;52.270;6.832;2022-09-28T06:25:22;11.40;98.00
47310;DHT22;33046;52.270;6.832;2022-09-28T06:27:29;11.50;98.10
47310;DHT22;33046;52.270;6.832;2022-09-28T06:29:37;11.50;98.00
47310;DHT22;33046;52.270;6.832;2022-09-28T06:31:44;11.50;97.90
47310;DHT22;33046;52.270;6.832;2022-09-28T06:33:52;11.50;97.90
47310;DHT22;33046;52.270;6.832;2022-09-28T06:36:00;11.50;97.80
47310;DHT22;33046;52.270;6.832;2022-09-28T06:38:07;11.50;97.80
47310;DHT22;33046;52.270;6.832;2022-09-28T06:40:14;11.50;97.70
47310;DHT22;33046;52.270;6.832;2022-09-28T06:42:21;11.60;97.70
47310;DHT22;33046;52.270;6.832;2022-09-28T06:44:47;11.60;97.70
47310;DHT22;33046;52.270;6.832;2022-09-28T06:47:10;11.60;97.80
47310;DHT22;33046;52.270;6.832;2022-09-28T06:49:39;11.60;97.60
47310;DHT22;33046;52.270;6.832;2022-09-28T06:52:09;11.60;97.70
47310;DHT22;33046;52.270;6.832;2022-09-28T06:54:34;11.60;97.70
47310;DHT22;33046;52.270;6.832;2022-09-28T06:56:48;11.60;97.70
47310;DHT22;33046;52.270;6.832;2022-09-28T06:58:55;11.60;97.40
47310;DHT22;33046;52.270;6.832;2022-09-28T07:01:03;11.60;97.50
47310;DHT22;33046;52.270;6.832;2022-09-28T07:03:21;11.60;97.50
47310;DHT22;33046;52.270;6.832;2022-09-28T07:05:40;11.70;97.50
47310;DHT22;33046;52.270;6.832;2022-09-28T07:08:16;11.70;97.60
47310;DHT22;33046;52.270;6.832;2022-09-28T07:10:41;11.70;97.70
47310;DHT22;33046;52.270;6.832;2022-09-28T07:13:03;11.80;97.60
47310;DHT22;33046;52.270;6.832;2022-09-28T07:15:20;11.80;97.70
47310;DHT22;33046;52.270;6.832;2022-09-28T07:17:28;11.80;97.80
47310;DHT22;33046;52.270;6.832;2022-09-28T07:19:37;11.80;97.80
47310;DHT22;33046;52.270;6.832;2022-09-28T07:21:44;11.90;97.60
47310;DHT22;33046;52.270;6.832;2022-09-28T07:23:53;11.90;97.60
47310;DHT22;33046;52.270;6.832;2022-09-28T07:26:04;11.90;97.50
47310;DHT22;33046;52.270;6.832;2022-09-28T07:28:33;11.90;97.50
47310;DHT22;33046;52.270;6.832;2022-09-28T07:31:06;11.90;97.40
47310;DHT22;33046;52.270;6.832;2022-09-28T07:33:40;12.00;97.20
47310;DHT22;33046;52.270;6.832;2022-09-28T07:35:59;12.00;97.00
47310;DHT22;33046;52.270;6.832;2022-09-28T07:38:09;12.10;97.10
47310;DHT22;33046;52.270;6.832;2022-09-28T07:40:16;12.10;97.00
47310;DHT22;33046;52.270;6.832;2022-09-28T07:42:24;12.10;96.70
47310;DHT22;33046;52.270;6.832;2022-09-28T07:44:31;12.10;96.50
47310;DHT22;33046;52.270;6.832;2022-09-28T07:46:37;12.10;96.70
47310;DHT22;33046;52.270;6.832;2022-09-28T07:49:01;12.20;96.90
47310;DHT22;33046;52.270;6.832;2022-09-28T07:51:13;12.20;96.50
47310;DHT22;33046;52.270;6.832;2022-09-28T07:53:36;12.20;96.30
47310;DHT22;33046;52.270;6.832;2022-09-28T07:55:55;12.20;96.40
47310;DHT22;33046;52.270;6.832;2022-09-28T07:58:12;12.20;96.70
47310;DHT22;33046;52.270;6.832;2022-09-28T08:00:32;12.30;96.70
47310;DHT22;33046;52.270;6.832;2022-09-28T08:02:40;12.30;96.60
47310;DHT22;33046;52.270;6.832;2022-09-28T08:04:49;12.30;96.50
47310;DHT22;33046;52.270;6.832;2022-09-28T08:06:56;12.40;96.40
47310;DHT22;33046;52.270;6.832;2022-09-28T08:09:03;12.40;96.40
47310;DHT22;33046;52.270;6.832;2022-09-28T08:11:30;12.50;96.10
47310;DHT22;33046;52.270;6.832;2022-09-28T08:14:03;12.50;96.20
47310;DHT22;33046;52.270;6.832;2022-09-28T08:16:38;12.60;96.00
47310;DHT22;33046;52.270;6.832;2022-09-28T08:18:52;12.60;96.00
47310;DHT22;33046;52.270;6.832;2022-09-28T08:21:01;12.60;95.60
47310;DHT22;33046;52.270;6.832;2022-09-28T08:23:09;12.60;95.60
47310;DHT22;33046;52.270;6.832;2022-09-28T08:25:18;12.70;95.90
47310;DHT22;33046;52.270;6.832;2022-09-28T08:27:25;12.70;95.90
47310;DHT22;33046;52.270;6.832;2022-09-28T08:29:32;12.80;95.70
47310;DHT22;33046;52.270;6.832;2022-09-28T08:31:59;12.70;95.80
47310;DHT22;33046;52.270;6.832;2022-09-28T08:34:27;12.80;95.80
47310;DHT22;33046;52.270;6.832;2022-09-28T08:36:35;12.80;95.60
47310;DHT22;33046;52.270;6.832;2022-09-28T08:39:00;12.80;95.70
47310;DHT22;33046;52.270;6.832;2022-09-28T08:41:34;12.90;95.90
47310;DHT22;33046;52.270;6.832;2022-09-28T08:44:02;12.90;95.80
47310;DHT22;33046;52.270;6.832;2022-09-28T08:46:36;12.90;95.60
47310;DHT22;33046;52.270;6.832;2022-09-28T08:49:17;13.00;95.60
47310;DHT22;33046;52.270;6.832;2022-09-28T08:51:49;13.00;95.50
47310;DHT22;33046;52.270;6.832;2022-09-28T08:54:21;13.10;95.20
47310;DHT22;33046;52.270;6.832;2022-09-28T08:56:38;13.10;95.30
47310;DHT22;33046;52.270;6.832;2022-09-28T08:58:57;13.20;94.90
47310;DHT22;33046;52.270;6.832;2022-09-28T09:01:06;13.30;95.10
47310;DHT22;33046;52.270;6.832;2022-09-28T09:03:17;13.50;95.20
47310;DHT22;33046;52.270;6.832;2022-09-28T09:05:45;13.60;94.80
47310;DHT22;33046;52.270;6.832;2022-09-28T09:08:37;13.70;94.30
47310;DHT22;33046;52.270;6.832;2022-09-28T09:10:50;13.90;94.20
47310;DHT22;33046;52.270;6.832;2022-09-28T09:13:24;13.90;93.50
47310;DHT22;33046;52.270;6.832;2022-09-28T09:15:40;14.00;94.10
47310;DHT22;33046;52.270;6.832;2022-09-28T09:18:07;14.20;93.70
47310;DHT22;33046;52.270;6.832;2022-09-28T09:20:35;14.30;93.50
47310;DHT22;33046;52.270;6.832;2022-09-28T09:22:59;14.40;93.10
47310;DHT22;33046;52.270;6.832;2022-09-28T09:25:17;14.40;93.30
47310;DHT22;33046;52.270;6.832;2022-09-28T09:27:39;14.40;93.10
47310;DHT22;33046;52.270;6.832;2022-09-28T09:29:59;14.40;93.40
47310;DHT22;33046;52.270;6.832;2022-09-28T09:32:19;14.50;93.40
47310;DHT22;33046;52.270;6.832;2022-09-28T09:34:41;14.60;93.60
47310;DHT22;33046;52.270;6.832;2022-09-28T09:37:23;14.60;92.80
47310;DHT22;33046;52.270;6.832;2022-09-28T09:40:04;14.60;92.40
47310;DHT22;33046;52.270;6.832;2022-09-28T09:42:47;14.60;92.40
47310;DHT22;33046;52.270;6.832;2022-09-28T09:45:30;14.60;92.40
47310;DHT22;33046;52.270;6.832;2022-09-28T09:48:13;14.60;91.90
47310;DHT22;33046;52.270;6.832;2022-09-28T09:50:25;14.60;92.00
47310;DHT22;33046;52.270;6.832;2022-09-28T09:52:36;14.60;92.20
47310;DHT22;33046;52.270;6.832;2022-09-28T09:54:50;14.50;91.90
47310;DHT22;33046;52.270;6.832;2022-09-28T09:57:41;14.50;91.60
47310;DHT22;33046;52.270;6.832;2022-09-28T10:00:15;14.50;91.70
47310;DHT22;33046;52.270;6.832;2022-09-28T10:02:44;14.60;91.60
47310;DHT22;33046;52.270;6.832;2022-09-28T10:05:16;14.60;91.20
47310;DHT22;33046;52.270;6.832;2022-09-28T10:07:30;14.60;92.10
47310;DHT22;33046;52.270;6.832;2022-09-28T10:09:42;14.60;92.10
47310;DHT22;33046;52.270;6.832;2022-09-28T10:12:19;14.70;92.10
47310;DHT22;33046;52.270;6.832;2022-09-28T10:14:27;14.70;91.70
47310;DHT22;33046;52.270;6.832;2022-09-28T10:16:40;14.70;91.90
47310;DHT22;33046;52.270;6.832;2022-09-28T10:18:54;14.80;92.10
47310;DHT22;33046;52.270;6.832;2022-09-28T10:21:20;14.80;91.90
47310;DHT22;33046;52.270;6.832;2022-09-28T10:23:36;14.90;91.80
47310;DHT22;33046;52.270;6.832;2022-09-28T10:25:45;15.00;91.80
47310;DHT22;33046;52.270;6.832;2022-09-28T10:27:53;15.00;91.70
47310;DHT22;33046;52.270;6.832;2022-09-28T10:30:13;15.00;91.40
47310;DHT22;33046;52.270;6.832;2022-09-28T10:32:23;15.10;91.20
47310;DHT22;33046;52.270;6.832;2022-09-28T10:34:33;15.10;90.80
47310;DHT22;33046;52.270;6.832;2022-09-28T10:36:50;15.30;91.30
47310;DHT22;33046;52.270;6.832;2022-09-28T10:38:58;15.30;91.00
47310;DHT22;33046;52.270;6.832;2022-09-28T10:41:10;15.30;90.20
47310;DHT22;33046;52.270;6.832;2022-09-28T10:43:30;15.30;90.40
47310;DHT22;33046;52.270;6.832;2022-09-28T10:45:42;15.30;90.50
47310;DHT22;33046;52.270;6.832;2022-09-28T10:47:49;15.40;90.30
47310;DHT22;33046;52.270;6.832;2022-09-28T10:49:57;15.40;90.60
47310;DHT22;33046;52.270;6.832;2022-09-28T10:52:32;15.50;89.90
47310;DHT22;33046;52.270;6.832;2022-09-28T10:54:51;15.50;90.00
47310;DHT22;33046;52.270;6.832;2022-09-28T10:56:59;15.50;90.00
47310;DHT22;33046;52.270;6.832;2022-09-28T10:59:39;15.50;90.20
47310;DHT22;33046;52.270;6.832;2022-09-28T11:02:16;15.50;89.80
47310;DHT22;33046;52.270;6.832;2022-09-28T11:04:27;15.40;90.20
47310;DHT22;33046;52.270;6.832;2022-09-28T11:06:37;15.50;90.30
47310;DHT22;33046;52.270;6.832;2022-09-28T11:08:48;15.50;90.30
47310;DHT22;33046;52.270;6.832;2022-09-28T11:11:06;15.50;90.30
47310;DHT22;33046;52.270;6.832;2022-09-28T11:13:14;15.50;89.60
47310;DHT22;33046;52.270;6.832;2022-09-28T11:15:28;15.50;88.40
47310;DHT22;33046;52.270;6.832;2022-09-28T11:17:38;15.60;87.40
47310;DHT22;33046;52.270;6.832;2022-09-28T11:19:46;15.60;87.40
47310;DHT22;33046;52.270;6.832;2022-09-28T11:21:53;15.60;87.80
47310;DHT22;33046;52.270;6.832;2022-09-28T11:24:19;15.60;88.10
47310;DHT22;33046;52.270;6.832;2022-09-28T11:26:34;15.60;87.80
47310;DHT22;33046;52.270;6.832;2022-09-28T11:28:42;15.60;88.20
47310;DHT22;33046;52.270;6.832;2022-09-28T11:31:01;15.60;88.50
47310;DHT22;33046;52.270;6.832;2022-09-28T11:33:23;15.60;89.10
47310;DHT22;33046;52.270;6.832;2022-09-28T11:36:21;15.60;89.80
47310;DHT22;33046;52.270;6.832;2022-09-28T11:38:38;15.60;88.00
47310;DHT22;33046;52.270;6.832;2022-09-28T11:41:24;15.60;88.70
47310;DHT22;33046;52.270;6.832;2022-09-28T11:43:50;15.60;88.80
47310;DHT22;33046;52.270;6.832;2022-09-28T11:46:10;15.70;88.30
47310;DHT22;33046;52.270;6.832;2022-09-28T11:48:22;15.70;88.50
47310;DHT22;33046;52.270;6.832;2022-09-28T11:50:39;15.70;88.30
47310;DHT22;33046;52.270;6.832;2022-09-28T11:53:00;15.70;88.50
47310;DHT22;33046;52.270;6.832;2022-09-28T11:55:16;15.80;87.00
47310;DHT22;33046;52.270;6.832;2022-09-28T11:57:28;15.80;87.30
47310;DHT22;33046;52.270;6.832;2022-09-28T11:59:50;15.80;88.20
47310;DHT22;33046;52.270;6.832;2022-09-28T12:02:03;15.90;87.00
47310;DHT22;33046;52.270;6.832;2022-09-28T12:04:35;15.90;87.40
47310;DHT22;33046;52.270;6.832;2022-09-28T12:06:49;15.90;86.40
47310;DHT22;33046;52.270;6.832;2022-09-28T12:09:04;15.90;86.10
47310;DHT22;33046;52.270;6.832;2022-09-28T12:11:32;16.00;86.00
47310;DHT22;33046;52.270;6.832;2022-09-28T12:13:57;16.00;85.10
47310;DHT22;33046;52.270;6.832;2022-09-28T12:16:12;16.00;85.30
47310;DHT22;33046;52.270;6.832;2022-09-28T12:18:43;16.10;85.00
47310;DHT22;33046;52.270;6.832;2022-09-28T12:21:05;16.10;84.80
47310;DHT22;33046;52.270;6.832;2022-09-28T12:23:15;16.20;85.50
47310;DHT22;33046;52.270;6.832;2022-09-28T12:25:24;16.20;84.30
47310;DHT22;33046;52.270;6.832;2022-09-28T12:27:39;16.20;85.30
47310;DHT22;33046;52.270;6.832;2022-09-28T12:29:47;16.20;84.60
47310;DHT22;33046;52.270;6.832;2022-09-28T12:32:03;16.20;85.00
47310;DHT22;33046;52.270;6.832;2022-09-28T12:34:12;16.20;84.30
47310;DHT22;33046;52.270;6.832;2022-09-28T12:36:31;16.20;83.40
47310;DHT22;33046;52.270;6.832;2022-09-28T12:38:54;16.20;85.30
47310;DHT22;33046;52.270;6.832;2022-09-28T12:41:35;16.30;83.00
47310;DHT22;33046;52.270;6.832;2022-09-28T12:43:55;16.30;84.40
47310;DHT22;33046;52.270;6.832;2022-09-28T12:51:49;16.30;84.20
47310;DHT22;33046;52.270;6.832;2022-09-28T12:54:08;16.30;84.40
47310;DHT22;33046;52.270;6.832;2022-09-28T12:56:26;16.20;82.30
47310;DHT22;33046;52.270;6.832;2022-09-28T12:58:47;16.30;82.30
47310;DHT22;33046;52.270;6.832;2022-09-28T13:01:05;16.30;82.60
47310;DHT22;33046;52.270;6.832;2022-09-28T13:03:39;16.30;82.50
47310;DHT22;33046;52.270;6.832;2022-09-28T13:06:02;16.40;83.20
47310;DHT22;33046;52.270;6.832;2022-09-28T13:08:16;16.40;81.50
47310;DHT22;33046;52.270;6.832;2022-09-28T13:10:29;16.40;81.80
47310;DHT22;33046;52.270;6.832;2022-09-28T13:12:46;16.40;82.90
47310;DHT22;33046;52.270;6.832;2022-09-28T13:15:21;16.40;82.80
47310;DHT22;33046;52.270;6.832;2022-09-28T13:17:40;16.40;81.10
47310;DHT22;33046;52.270;6.832;2022-09-28T13:19:51;16.40;80.90
47310;DHT22;33046;52.270;6.832;2022-09-28T13:22:14;16.30;81.40
47310;DHT22;33046;52.270;6.832;2022-09-28T13:24:30;16.40;81.90
47310;DHT22;33046;52.270;6.832;2022-09-28T13:26:41;16.30;81.90
47310;DHT22;33046;52.270;6.832;2022-09-28T13:28:49;16.40;81.70
47310;DHT22;33046;52.270;6.832;2022-09-28T13:30:58;16.40;82.10
47310;DHT22;33046;52.270;6.832;2022-09-28T13:33:18;16.30;81.80
47310;DHT22;33046;52.270;6.832;2022-09-28T13:35:26;16.30;81.10
47310;DHT22;33046;52.270;6.832;2022-09-28T13:37:33;16.30;81.90
47310;DHT22;33046;52.270;6.832;2022-09-28T13:39:48;16.30;81.80
47310;DHT22;33046;52.270;6.832;2022-09-28T13:41:55;16.30;81.60
47310;DHT22;33046;52.270;6.832;2022-09-28T13:44:22;16.30;83.20
47310;DHT22;33046;52.270;6.832;2022-09-28T13:46:38;16.30;82.70
47310;DHT22;33046;52.270;6.832;2022-09-28T13:48:57;16.30;82.40
47310;DHT22;33046;52.270;6.832;2022-09-28T13:51:17;16.20;83.20
47310;DHT22;33046;52.270;6.832;2022-09-28T13:53:39;16.20;83.90
47310;DHT22;33046;52.270;6.832;2022-09-28T13:56:21;16.20;84.10
47310;DHT22;33046;52.270;6.832;2022-09-28T13:58:35;16.10;83.80
47310;DHT22;33046;52.270;6.832;2022-09-28T14:00:46;16.10;84.00
47310;DHT22;33046;52.270;6.832;2022-09-28T14:02:57;16.10;84.30
47310;DHT22;33046;52.270;6.832;2022-09-28T14:05:24;16.00;84.80
47310;DHT22;33046;52.270;6.832;2022-09-28T14:07:54;16.00;85.70
47310;DHT22;33046;52.270;6.832;2022-09-28T14:10:18;16.00;85.90
47310;DHT22;33046;52.270;6.832;2022-09-28T14:12:29;15.90;85.60
47310;DHT22;33046;52.270;6.832;2022-09-28T14:14:49;16.00;86.10
47310;DHT22;33046;52.270;6.832;2022-09-28T14:19:58;15.90;86.40
47310;DHT22;33046;52.270;6.832;2022-09-28T14:22:13;15.90;87.00